sensor_id;sensor_type;location;lat;lon;timestamp;temperature;humidity
44731;DHT22;30458;47.448;19.032;2024-03-02T00:08:51;13.20;99.90
44731;DHT22;30458;47.448;19.032;2024-03-02T00:19:05;13.10;99.90
44731;DHT22;30458;47.448;19.032;2024-03-02T00:29:08;13.00;99.90
44731;DHT22;30458;47.448;19.032;2024-03-02T00:39:15;12.90;99.90
44731;DHT22;30458;47.448;19.032;2024-03-02T00:49:24;12.90;99.90
44731;DHT22;30458;47.448;19.032;2024-03-02T00:59:26;12.80;99.90
44731;DHT22;30458;47.448;19.032;2024-03-02T01:09:27;12.70;99.90
44731;DHT22;30458;47.448;19.032;2024-03-02T01:19:32;12.60;99.90
44731;DHT22;30458;47.448;19.032;2024-03-02T01:29:33;12.50;99.90
44731;DHT22;30458;47.448;19.032;2024-03-02T01:39:39;12.50;99.90
44731;DHT22;30458;47.448;19.032;2024-03-02T01:49:42;12.50;99.90
44731;DHT22;30458;47.448;19.032;2024-03-02T01:59:43;12.60;99.90
44731;DHT22;30458;47.448;19.032;2024-03-02T02:09:47;12.70;99.90
44731;DHT22;30458;47.448;19.032;2024-03-02T02:19:47;12.70;99.90
44731;DHT22;30458;47.448;19.032;2024-03-02T02:29:48;12.60;99.90
44731;DHT22;30458;47.448;19.032;2024-03-02T02:39:49;12.50;99.90
44731;DHT22;30458;47.448;19.032;2024-03-02T02:49:52;12.40;99.90
44731;DHT22;30458;47.448;19.032;2024-03-02T02:59:57;12.50;99.90
44731;DHT22;30458;47.448;19.032;2024-03-02T03:09:58;12.50;99.90
44731;DHT22;30458;47.448;19.032;2024-03-02T03:20:02;12.60;99.90
44731;DHT22;30458;47.448;19.032;2024-03-02T03:30:04;12.50;99.90
44731;DHT22;30458;47.448;19.032;2024-03-02T03:40:09;12.50;99.90
44731;DHT22;30458;47.448;19.032;2024-03-02T03:50:17;12.50;99.90
44731;DHT22;30458;47.448;19.032;2024-03-02T04:00:18;12.50;99.90
44731;DHT22;30458;47.448;19.032;2024-03-02T04:10:19;12.30;99.90
44731;DHT22;30458;47.448;19.032;2024-03-02T04:20:21;12.00;99.90
44731;DHT22;30458;47.448;19.032;2024-03-02T04:30:22;11.70;99.90
44731;DHT22;30458;47.448;19.032;2024-03-02T04:40:22;11.40;99.90
44731;DHT22;30458;47.448;19.032;2024-03-02T04:50:25;11.40;99.90
44731;DHT22;30458;47.448;19.032;2024-03-02T05:00:26;11.40;99.90
44731;DHT22;30458;47.448;19.032;2024-03-02T05:10:27;11.50;99.90
44731;DHT22;30458;47.448;19.032;2024-03-02T05:20:28;11.30;99.90
44731;DHT22;30458;47.448;19.032;2024-03-02T05:30:31;11.60;99.90
44731;DHT22;30458;47.448;19.032;2024-03-02T05:40:34;11.70;99.90
44731;DHT22;30458;47.448;19.032;2024-03-02T05:50:35;11.80;99.90
44731;DHT22;30458;47.448;19.032;2024-03-02T06:00:36;11.90;99.90
44731;DHT22;30458;47.448;19.032;2024-03-02T06:10:39;11.90;99.90
44731;DHT22;30458;47.448;19.032;2024-03-02T06:20:40;11.90;99.90
44731;DHT22;30458;47.448;19.032;2024-03-02T06:30:47;11.90;99.90
44731;DHT22;30458;47.448;19.032;2024-03-02T06:40:47;11.80;99.90
44731;DHT22;30458;47.448;19.032;2024-03-02T06:50:49;11.80;99.90
44731;DHT22;30458;47.448;19.032;2024-03-02T07:00:50;11.80;99.90
44731;DHT22;30458;47.448;19.032;2024-03-02T07:10:54;11.90;99.90
44731;DHT22;30458;47.448;19.032;2024-03-02T07:20:57;11.80;99.90
44731;DHT22;30458;47.448;19.032;2024-03-02T07:31:02;11.80;99.90
44731;DHT22;30458;47.448;19.032;2024-03-02T07:41:08;11.80;99.90
44731;DHT22;30458;47.448;19.032;2024-03-02T07:51:11;11.90;99.90
44731;DHT22;30458;47.448;19.032;2024-03-02T08:01:12;11.80;99.90
44731;DHT22;30458;47.448;19.032;2024-03-02T08:11:13;11.70;99.90
44731;DHT22;30458;47.448;19.032;2024-03-02T08:21:14;11.50;99.90
44731;DHT22;30458;47.448;19.032;2024-03-02T08:31:15;11.50;99.90
44731;DHT22;30458;47.448;19.032;2024-03-02T08:41:16;11.60;99.90
44731;DHT22;30458;47.448;19.032;2024-03-02T08:51:16;11.40;99.90
44731;DHT22;30458;47.448;19.032;2024-03-02T09:01:18;11.40;99.90
44731;DHT22;30458;47.448;19.032;2024-03-02T09:11:22;11.30;99.90
44731;DHT22;30458;47.448;19.032;2024-03-02T09:21:23;11.30;99.90
44731;DHT22;30458;47.448;19.032;2024-03-02T09:31:26;11.50;99.90
44731;DHT22;30458;47.448;19.032;2024-03-02T09:41:29;11.50;99.90
44731;DHT22;30458;47.448;19.032;2024-03-02T09:51:31;11.50;99.90
44731;DHT22;30458;47.448;19.032;2024-03-02T10:01:32;11.40;99.90
44731;DHT22;30458;47.448;19.032;2024-03-02T10:11:35;11.40;99.90
44731;DHT22;30458;47.448;19.032;2024-03-02T10:21:40;11.30;99.90
44731;DHT22;30458;47.448;19.032;2024-03-02T10:31:43;11.40;99.90
44731;DHT22;30458;47.448;19.032;2024-03-02T10:41:44;11.50;99.90
44731;DHT22;30458;47.448;19.032;2024-03-02T10:51:47;11.50;99.90
44731;DHT22;30458;47.448;19.032;2024-03-02T11:01:48;11.50;99.90
44731;DHT22;30458;47.448;19.032;2024-03-02T11:12:00;11.60;99.90
44731;DHT22;30458;47.448;19.032;2024-03-02T11:22:03;11.60;99.90
44731;DHT22;30458;47.448;19.032;2024-03-02T11:32:16;11.60;99.90
44731;DHT22;30458;47.448;19.032;2024-03-02T11:42:19;11.50;99.90
44731;DHT22;30458;47.448;19.032;2024-03-02T11:52:20;11.20;99.90
44731;DHT22;30458;47.448;19.032;2024-03-02T12:02:22;11.30;99.90
44731;DHT22;30458;47.448;19.032;2024-03-02T12:12:26;11.30;99.90
44731;DHT22;30458;47.448;19.032;2024-03-02T12:22:29;11.50;99.90
44731;DHT22;30458;47.448;19.032;2024-03-02T12:32:30;11.80;99.90
44731;DHT22;30458;47.448;19.032;2024-03-02T12:42:31;11.70;99.90
44731;DHT22;30458;47.448;19.032;2024-03-02T12:52:32;11.40;99.90
44731;DHT22;30458;47.448;19.032;2024-03-02T13:02:33;11.30;99.90
44731;DHT22;30458;47.448;19.032;2024-03-02T13:12:35;11.50;99.90
44731;DHT22;30458;47.448;19.032;2024-03-02T13:22:36;11.40;99.90
44731;DHT22;30458;47.448;19.032;2024-03-02T13:32:37;11.20;99.90
44731;DHT22;30458;47.448;19.032;2024-03-02T13:42:40;11.00;99.90
44731;DHT22;30458;47.448;19.032;2024-03-02T13:52:43;10.70;99.90
44731;DHT22;30458;47.448;19.032;2024-03-02T14:02:45;10.60;99.90
44731;DHT22;30458;47.448;19.032;2024-03-02T14:12:50;10.60;99.90
44731;DHT22;30458;47.448;19.032;2024-03-02T14:22:51;10.60;99.90
44731;DHT22;30458;47.448;19.032;2024-03-02T14:32:51;10.50;99.90
44731;DHT22;30458;47.448;19.032;2024-03-02T14:42:52;10.50;99.90
44731;DHT22;30458;47.448;19.032;2024-03-02T14:52:56;10.50;99.90
44731;DHT22;30458;47.448;19.032;2024-03-02T15:03:00;10.50;99.90
44731;DHT22;30458;47.448;19.032;2024-03-02T15:13:04;10.50;99.90
44731;DHT22;30458;47.448;19.032;2024-03-02T15:23:07;10.60;99.90
44731;DHT22;30458;47.448;19.032;2024-03-02T15:33:08;10.90;99.90
44731;DHT22;30458;47.448;19.032;2024-03-02T15:43:11;11.10;99.90
44731;DHT22;30458;47.448;19.032;2024-03-02T15:53:14;11.20;99.90
44731;DHT22;30458;47.448;19.032;2024-03-02T16:03:17;11.40;99.90
44731;DHT22;30458;47.448;19.032;2024-03-02T16:13:20;11.40;99.90
44731;DHT22;30458;47.448;19.032;2024-03-02T16:23:21;11.30;99.90
44731;DHT22;30458;47.448;19.032;2024-03-02T16:33:22;11.30;99.90
44731;DHT22;30458;47.448;19.032;2024-03-02T16:43:24;11.20;99.90
44731;DHT22;30458;47.448;19.032;2024-03-02T16:53:27;11.00;99.90
44731;DHT22;30458;47.448;19.032;2024-03-02T17:03:28;11.20;99.90
44731;DHT22;30458;47.448;19.032;2024-03-02T17:13:31;11.20;99.90
44731;DHT22;30458;47.448;19.032;2024-03-02T17:23:32;11.00;99.90
44731;DHT22;30458;47.448;19.032;2024-03-02T17:33:35;11.20;99.90
44731;DHT22;30458;47.448;19.032;2024-03-02T17:43:38;11.30;99.90
44731;DHT22;30458;47.448;19.032;2024-03-02T17:53:39;11.40;99.90
44731;DHT22;30458;47.448;19.032;2024-03-02T18:03:40;11.50;99.90
44731;DHT22;30458;47.448;19.032;2024-03-02T18:13:43;11.40;99.90
44731;DHT22;30458;47.448;19.032;2024-03-02T18:23:46;11.30;99.90
44731;DHT22;30458;47.448;19.032;2024-03-02T18:33:47;11.30;99.90
44731;DHT22;30458;47.448;19.032;2024-03-02T18:43:50;11.40;99.90
44731;DHT22;30458;47.448;19.032;2024-03-02T18:53:51;11.50;99.90
44731;DHT22;30458;47.448;19.032;2024-03-02T19:03:54;11.60;99.90
44731;DHT22;30458;47.448;19.032;2024-03-02T19:13:55;11.50;99.90
44731;DHT22;30458;47.448;19.032;2024-03-02T19:23:57;11.60;99.90
44731;DHT22;30458;47.448;19.032;2024-03-02T19:34:01;11.70;99.90
44731;DHT22;30458;47.448;19.032;2024-03-02T19:44:01;11.80;99.90
44731;DHT22;30458;47.448;19.032;2024-03-02T19:54:04;11.80;99.90
44731;DHT22;30458;47.448;19.032;2024-03-02T20:04:05;11.80;99.90
44731;DHT22;30458;47.448;19.032;2024-03-02T20:14:05;11.90;99.90
44731;DHT22;30458;47.448;19.032;2024-03-02T20:24:06;11.80;99.90
44731;DHT22;30458;47.448;19.032;2024-03-02T20:34:10;11.80;99.90
44731;DHT22;30458;47.448;19.032;2024-03-02T20:44:13;11.60;99.90
44731;DHT22;30458;47.448;19.032;2024-03-02T20:54:17;11.70;99.90
44731;DHT22;30458;47.448;19.032;2024-03-02T21:04:23;11.80;99.90
44731;DHT22;30458;47.448;19.032;2024-03-02T21:14:24;11.70;99.90
44731;DHT22;30458;47.448;19.032;2024-03-02T21:24:27;11.70;99.90
44731;DHT22;30458;47.448;19.032;2024-03-02T21:34:34;10.90;99.90
44731;DHT22;30458;47.448;19.032;2024-03-02T21:44:40;11.80;99.90
44731;DHT22;30458;47.448;19.032;2024-03-02T21:54:45;11.80;99.90
44731;DHT22;30458;47.448;19.032;2024-03-02T22:04:48;11.80;99.90
44731;DHT22;30458;47.448;19.032;2024-03-02T22:14:49;11.90;99.90
44731;DHT22;30458;47.448;19.032;2024-03-02T22:24:52;11.80;99.90
44731;DHT22;30458;47.448;19.032;2024-03-02T22:34:55;11.90;99.90
44731;DHT22;30458;47.448;19.032;2024-03-02T22:44:56;11.90;99.90
44731;DHT22;30458;47.448;19.032;2024-03-02T22:54:57;11.90;99.90
44731;DHT22;30458;47.448;19.032;2024-03-02T23:05:00;11.80;99.90
44731;DHT22;30458;47.448;19.032;2024-03-02T23:15:04;11.90;99.90
44731;DHT22;30458;47.448;19.032;2024-03-02T23:25:07;11.80;99.90
44731;DHT22;30458;47.448;19.032;2024-03-02T23:35:14;11.70;99.90
44731;DHT22;30458;47.448;19.032;2024-03-02T23:45:15;11.60;99.90
44731;DHT22;30458;47.448;19.032;2024-03-02T23:55:18;11.60;99.90
